createdAt,value
2019-03-23T00:01:44.942Z,67.77
2019-03-23T00:04:16.685Z,70.10
2019-03-23T00:06:48.389Z,56.77
2019-03-23T00:09:20.066Z,64.27
2019-03-23T00:11:51.584Z,65.23
2019-03-23T00:14:23.347Z,68.35
2019-03-23T00:16:54.863Z,65.47
2019-03-23T00:19:26.516Z,63.02
2019-03-23T00:21:58.194Z,66.50
2019-03-23T00:24:29.862Z,58.17
2019-03-23T00:27:01.652Z,63.20
2019-03-23T00:29:34.777Z,65.77
2019-03-23T00:32:06.598Z,66.82
2019-03-23T00:34:38.255Z,59.00
2019-03-23T00:37:09.847Z,74.07
2019-03-23T00:39:41.365Z,70.10
2019-03-23T00:42:12.880Z,57.67
2019-03-23T00:44:44.396Z,65.13
2019-03-23T00:47:16.984Z,60.50
2019-03-23T00:49:48.547Z,52.00
2019-03-23T00:52:20.117Z,66.37
2019-03-23T00:54:51.639Z,64.97
2019-03-23T00:57:23.164Z,62.57
2019-03-23T00:59:54.687Z,59.97
2019-03-23T01:02:26.203Z,67.20
2019-03-23T01:04:57.781Z,66.87
2019-03-23T01:07:29.304Z,65.00
2019-03-23T01:10:00.807Z,66.40
2019-03-23T01:12:32.351Z,66.27
2019-03-23T01:15:06.176Z,65.17
2019-03-23T01:17:37.770Z,64.23
2019-03-23T01:20:11.587Z,58.67
2019-03-23T01:22:43.136Z,63.60
2019-03-23T01:25:14.690Z,54.57
2019-03-23T01:27:46.242Z,60.50
2019-03-23T01:30:18.369Z,56.53
2019-03-23T01:32:49.905Z,63.43
2019-03-23T01:35:21.427Z,49.13
2019-03-23T01:37:53.004Z,48.70
2019-03-23T01:40:24.502Z,55.77
2019-03-23T01:42:56.018Z,55.20
2019-03-23T01:45:27.534Z,55.93
2019-03-23T01:47:59.105Z,45.67
2019-03-23T01:50:30.605Z,49.37
2019-03-23T01:53:03.168Z,50.53
2019-03-23T01:55:34.668Z,61.10
2019-03-23T01:58:06.294Z,64.10
2019-03-23T02:00:37.806Z,55.90
2019-03-23T02:03:09.464Z,53.73
2019-03-23T02:05:40.962Z,58.23
2019-03-23T02:08:12.481Z,52.83
2019-03-23T02:10:44.000Z,57.77
2019-03-23T02:13:15.489Z,53.07
2019-03-23T02:15:47.009Z,51.77
2019-03-23T02:18:18.670Z,49.10
2019-03-23T02:20:50.236Z,50.77
2019-03-23T02:23:21.732Z,47.73
2019-03-23T02:25:53.231Z,56.27
2019-03-23T02:28:24.796Z,52.50
2019-03-23T02:30:56.314Z,52.57
2019-03-23T02:33:27.851Z,57.80
2019-03-23T02:35:59.414Z,47.13
2019-03-23T02:38:30.930Z,51.73
2019-03-23T02:41:02.511Z,41.67
2019-03-23T02:43:34.151Z,49.50
2019-03-23T02:46:05.717Z,46.20
2019-03-23T02:48:37.229Z,52.20
2019-03-23T02:51:08.752Z,51.80
2019-03-23T02:53:40.354Z,36.77
2019-03-23T02:56:11.841Z,42.57
2019-03-23T02:58:43.399Z,49.53
2019-03-23T03:01:14.981Z,46.10
2019-03-23T03:03:46.649Z,47.73
2019-03-23T03:06:18.227Z,42.90
2019-03-23T03:08:49.736Z,47.93
2019-03-23T03:11:21.263Z,45.33
2019-03-23T03:13:53.831Z,45.50
2019-03-23T03:16:25.332Z,43.97
2019-03-23T03:18:57.138Z,49.27
2019-03-23T03:21:28.657Z,45.83
2019-03-23T03:24:00.222Z,51.87
2019-03-23T03:26:31.796Z,43.30
2019-03-23T03:29:03.320Z,46.57
2019-03-23T03:31:34.830Z,56.27
2019-03-23T03:34:06.342Z,44.10
2019-03-23T03:36:37.865Z,55.60
2019-03-23T03:39:10.457Z,47.27
2019-03-23T03:41:41.968Z,53.83
2019-03-23T03:44:13.551Z,48.60
2019-03-23T03:46:45.072Z,51.33
2019-03-23T03:49:16.669Z,52.33
2019-03-23T03:51:48.157Z,52.53
2019-03-23T03:54:19.722Z,47.60
2019-03-23T03:56:51.221Z,53.37
2019-03-23T03:59:22.813Z,46.67
2019-03-23T04:01:54.303Z,48.33
2019-03-23T04:04:25.831Z,52.37
2019-03-23T04:06:57.320Z,59.30
2019-03-23T04:09:28.869Z,50.33
2019-03-23T04:12:00.463Z,55.60
2019-03-23T04:14:31.983Z,54.40
2019-03-23T04:17:03.469Z,48.07
2019-03-23T04:19:35.055Z,51.37
2019-03-23T04:22:06.569Z,43.57
2019-03-23T04:24:38.069Z,54.17
2019-03-23T04:27:09.664Z,53.43
2019-03-23T04:29:41.167Z,48.67
2019-03-23T04:32:12.716Z,44.57
2019-03-23T04:34:44.238Z,49.17
2019-03-23T04:37:15.729Z,50.07
2019-03-23T04:39:47.342Z,53.20
2019-03-23T04:42:18.929Z,47.87
2019-03-23T04:44:50.426Z,56.80
2019-03-23T04:47:21.931Z,48.93
2019-03-23T04:49:54.488Z,51.07
2019-03-23T04:52:26.005Z,52.10
2019-03-23T04:54:57.537Z,51.90
2019-03-23T04:57:29.053Z,48.63
2019-03-23T05:00:00.594Z,45.03
2019-03-23T05:02:32.162Z,45.57
2019-03-23T05:05:04.448Z,58.00
2019-03-23T05:07:35.950Z,59.90
2019-03-23T05:10:08.484Z,43.57
2019-03-23T05:12:39.999Z,43.50
2019-03-23T05:15:11.598Z,43.00
2019-03-23T05:17:44.248Z,46.07
2019-03-23T05:20:32.479Z,43.27
2019-03-23T05:23:04.048Z,56.23
2019-03-23T05:25:35.590Z,44.77
2019-03-23T05:28:07.104Z,51.97
2019-03-23T05:30:38.621Z,50.83
2019-03-23T05:33:11.208Z,45.07
2019-03-23T05:35:42.704Z,43.27
2019-03-23T05:38:14.224Z,45.40
2019-03-23T05:40:45.806Z,48.33
2019-03-23T05:43:17.373Z,41.00
2019-03-23T05:45:48.884Z,53.40
2019-03-23T05:48:20.473Z,42.67
2019-03-23T05:50:51.977Z,45.47
2019-03-23T05:53:23.477Z,50.17
2019-03-23T05:55:54.990Z,53.30
2019-03-23T05:58:26.506Z,47.57
2019-03-23T06:00:58.018Z,38.83
2019-03-23T06:03:29.628Z,43.68
2019-03-23T06:06:01.182Z,51.97
2019-03-23T06:08:33.763Z,45.10
2019-03-23T06:11:05.294Z,44.23
2019-03-23T06:13:36.820Z,44.33
2019-03-23T06:16:08.343Z,48.33
2019-03-23T06:18:39.919Z,42.43
2019-03-23T06:21:12.527Z,45.67
2019-03-23T06:23:44.061Z,43.07
2019-03-23T06:26:15.634Z,53.68
2019-03-23T06:28:47.172Z,45.83
2019-03-23T06:31:18.782Z,49.30
2019-03-23T06:33:50.431Z,40.75
2019-03-23T06:36:22.021Z,50.43
2019-03-23T06:38:53.612Z,40.05
2019-03-23T06:41:25.166Z,59.67
2019-03-23T06:43:57.739Z,49.33
2019-03-23T06:46:30.238Z,55.03
2019-03-23T06:49:01.771Z,52.50
2019-03-23T06:51:33.376Z,45.95
2019-03-23T06:54:04.899Z,48.35
2019-03-23T06:56:36.416Z,53.65
2019-03-23T06:59:08.016Z,51.58
2019-03-23T07:01:39.538Z,50.90
2019-03-23T07:04:11.058Z,51.98
2019-03-23T07:06:42.655Z,50.98
2019-03-23T07:09:16.424Z,48.52
2019-03-23T07:11:47.640Z,57.27
2019-03-23T07:14:19.153Z,54.42
2019-03-23T07:16:50.657Z,55.73
2019-03-23T07:19:22.265Z,44.23
2019-03-23T07:21:54.042Z,45.08
2019-03-23T07:24:25.550Z,46.98
2019-03-23T07:26:57.060Z,53.68
2019-03-23T07:29:28.605Z,42.38
2019-03-23T07:32:05.609Z,52.20
2019-03-23T07:34:33.449Z,65.90
2019-03-23T07:37:04.970Z,53.08
2019-03-23T07:39:36.500Z,63.00
2019-03-23T07:42:08.117Z,60.50
2019-03-23T07:44:39.600Z,56.95
2019-03-23T07:47:11.130Z,59.20
2019-03-23T07:49:42.636Z,60.75
2019-03-23T07:52:14.213Z,58.35
2019-03-23T07:54:45.807Z,58.52
2019-03-23T07:57:17.325Z,61.45
2019-03-23T07:59:48.861Z,59.73
2019-03-23T08:02:20.389Z,71.77
2019-03-23T08:04:51.894Z,64.87
2019-03-23T08:07:23.417Z,65.08
2019-03-23T08:09:54.954Z,63.10
2019-03-23T08:12:26.470Z,61.53
2019-03-23T08:14:58.060Z,70.25
2019-03-23T08:17:29.584Z,61.40
2019-03-23T08:20:01.164Z,62.30
2019-03-23T08:22:33.748Z,74.22
2019-03-23T08:25:07.268Z,76.15
2019-03-23T08:27:38.851Z,62.83
2019-03-23T08:30:10.794Z,73.72
2019-03-23T08:32:42.390Z,66.07
2019-03-23T08:35:13.913Z,69.03
2019-03-23T08:37:45.475Z,69.67
2019-03-23T08:40:16.990Z,73.62
2019-03-23T08:42:48.611Z,84.00
2019-03-23T08:45:20.139Z,66.15
2019-03-23T08:47:51.698Z,62.08
2019-03-23T08:50:23.358Z,67.32
2019-03-23T08:52:54.879Z,56.25
2019-03-23T08:55:26.533Z,69.95
2019-03-23T08:57:58.165Z,67.12
2019-03-23T09:00:29.773Z,64.50
2019-03-23T09:03:03.619Z,70.37
2019-03-23T09:05:35.640Z,65.15
2019-03-23T09:08:07.228Z,59.40
2019-03-23T09:10:38.824Z,66.47
2019-03-23T09:13:10.431Z,64.42
2019-03-23T09:15:42.103Z,69.37
2019-03-23T09:18:13.658Z,65.00
2019-03-23T09:20:45.388Z,60.15
2019-03-23T09:23:16.919Z,63.40
2019-03-23T09:25:48.416Z,62.60
2019-03-23T09:28:20.005Z,67.72
2019-03-23T09:30:51.589Z,68.15
2019-03-23T09:33:23.195Z,64.77
2019-03-23T09:35:54.770Z,60.35
2019-03-23T09:38:26.323Z,72.53
2019-03-23T09:40:57.847Z,66.75
2019-03-23T09:43:29.365Z,58.30
2019-03-23T09:46:01.073Z,58.23
2019-03-23T09:48:32.577Z,62.58
2019-03-23T09:51:04.172Z,61.25
2019-03-23T09:53:35.743Z,60.65
2019-03-23T09:56:07.269Z,54.45
2019-03-23T09:58:38.785Z,59.08
2019-03-23T10:01:10.267Z,59.30
2019-03-23T10:03:42.925Z,54.50
2019-03-23T10:06:16.688Z,52.73
2019-03-23T10:08:48.218Z,53.52
2019-03-23T10:11:19.742Z,55.12
2019-03-23T10:13:51.265Z,52.85
2019-03-23T10:16:22.859Z,51.48
2019-03-23T10:18:54.461Z,59.25
2019-03-23T10:21:26.949Z,51.92
2019-03-23T10:23:58.559Z,58.02
2019-03-23T10:26:30.143Z,53.55
2019-03-23T10:29:01.667Z,55.00
2019-03-23T10:31:33.252Z,55.92
2019-03-23T10:34:04.768Z,54.08
2019-03-23T10:36:36.275Z,58.30
2019-03-23T10:39:07.843Z,51.42
2019-03-23T10:41:39.426Z,53.20
2019-03-23T10:44:10.949Z,50.43
2019-03-23T10:46:42.471Z,50.33
2019-03-23T10:49:13.993Z,49.67
2019-03-23T10:51:45.600Z,42.73
2019-03-23T10:54:17.138Z,48.90
2019-03-23T10:56:48.677Z,50.35
2019-03-23T10:59:20.198Z,44.08
2019-03-23T11:01:51.719Z,49.77
2019-03-23T11:04:23.320Z,47.58
2019-03-23T11:06:54.905Z,48.52
2019-03-23T11:09:26.490Z,48.28
2019-03-23T11:11:58.010Z,46.88
2019-03-23T11:14:29.528Z,56.02
2019-03-23T11:17:01.066Z,51.35
2019-03-23T11:19:32.605Z,42.65
2019-03-23T11:22:04.237Z,38.83
2019-03-23T11:24:35.755Z,44.70
2019-03-23T11:27:07.366Z,40.92
2019-03-23T11:29:38.897Z,46.25
2019-03-23T11:32:10.419Z,43.05
2019-03-23T11:34:42.055Z,40.65
2019-03-23T11:37:13.634Z,44.15
2019-03-23T11:39:45.211Z,43.42
2019-03-23T11:42:16.738Z,40.08
2019-03-23T11:44:48.318Z,39.00
2019-03-23T11:47:19.861Z,45.23
2019-03-23T11:49:51.389Z,40.45
2019-03-23T11:52:23.878Z,46.53
2019-03-23T11:54:55.472Z,39.20
2019-03-23T11:57:27.076Z,44.63
2019-03-23T11:59:58.673Z,39.73
2019-03-23T12:02:30.251Z,38.95
2019-03-23T12:05:01.763Z,46.23
2019-03-23T12:07:33.343Z,46.15
2019-03-23T12:10:09.152Z,50.35
2019-03-23T12:12:41.814Z,52.23
2019-03-23T12:15:13.559Z,41.33
2019-03-23T12:17:45.098Z,45.90
2019-03-23T12:20:16.700Z,44.90
2019-03-23T12:22:48.293Z,42.78
2019-03-23T12:25:19.903Z,42.90
2019-03-23T12:27:51.424Z,44.25
2019-03-23T12:30:23.090Z,40.23
2019-03-23T12:32:54.617Z,48.68
2019-03-23T12:35:26.153Z,44.42
2019-03-23T12:37:57.677Z,42.70
2019-03-23T12:40:29.180Z,48.00
2019-03-23T12:43:00.699Z,42.98
2019-03-23T12:45:32.221Z,44.10
2019-03-23T12:48:03.758Z,43.42
2019-03-23T12:50:35.280Z,34.40
2019-03-23T12:53:06.980Z,34.38
2019-03-23T12:55:38.452Z,35.20
2019-03-23T12:58:09.969Z,33.13
2019-03-23T13:00:41.590Z,37.67
2019-03-23T13:03:13.190Z,40.17
2019-03-23T13:05:44.709Z,36.60
2019-03-23T13:08:16.286Z,36.23
2019-03-23T13:10:47.826Z,34.35
2019-03-23T13:13:19.385Z,34.73
2019-03-23T13:15:50.995Z,32.95
2019-03-23T13:18:27.044Z,36.75
2019-03-23T13:20:55.891Z,38.00
2019-03-23T13:23:27.391Z,34.30
2019-03-23T13:25:58.981Z,34.60
2019-03-23T13:28:30.484Z,35.98
2019-03-23T13:31:02.007Z,38.85
2019-03-23T13:33:33.669Z,38.50
2019-03-23T13:36:05.853Z,36.93
2019-03-23T13:38:37.430Z,34.50
2019-03-23T13:41:08.954Z,41.58
2019-03-23T13:43:40.480Z,36.05
2019-03-23T13:46:12.014Z,37.53
2019-03-23T13:48:43.547Z,36.17
2019-03-23T13:51:15.047Z,40.70
2019-03-23T13:53:46.601Z,34.73
2019-03-23T13:56:18.195Z,35.63
2019-03-23T13:58:49.749Z,37.23
2019-03-23T14:01:21.342Z,41.98
2019-03-23T14:03:52.933Z,40.65
2019-03-23T14:06:24.471Z,35.60
2019-03-23T14:08:56.422Z,35.28
2019-03-23T14:11:27.955Z,39.53
2019-03-23T14:14:00.538Z,38.88
2019-03-23T14:16:32.046Z,39.55
2019-03-23T14:19:03.636Z,43.98
2019-03-23T14:21:35.150Z,36.35
2019-03-23T14:24:06.720Z,29.50
2019-03-23T14:26:38.232Z,28.65
2019-03-23T14:29:09.761Z,27.58
2019-03-23T14:31:41.466Z,20.82
2019-03-23T14:34:12.969Z,21.27
2019-03-23T14:36:44.545Z,17.00
2019-03-23T14:39:16.065Z,17.17
2019-03-23T14:41:47.659Z,21.50
2019-03-23T14:44:19.339Z,18.65
2019-03-23T14:46:50.924Z,19.42
2019-03-23T14:49:22.486Z,19.62
2019-03-23T14:51:53.985Z,20.48
2019-03-23T14:54:25.503Z,16.27
2019-03-23T14:56:57.137Z,23.98
2019-03-23T14:59:28.643Z,21.33
2019-03-23T15:02:00.191Z,20.50
2019-03-23T15:04:31.670Z,18.05
2019-03-23T15:07:04.272Z,21.95
2019-03-23T15:09:35.791Z,19.12
2019-03-23T15:12:14.776Z,23.87
2019-03-23T15:14:40.547Z,17.48
2019-03-23T15:17:12.060Z,17.20
2019-03-23T15:19:43.571Z,15.78
2019-03-23T15:22:15.188Z,13.05
2019-03-23T15:24:47.781Z,14.63
2019-03-23T15:27:19.389Z,12.75
2019-03-23T15:29:51.077Z,11.78
2019-03-23T15:32:22.640Z,15.35
2019-03-23T15:34:54.156Z,12.73
2019-03-23T15:37:25.672Z,10.40
2019-03-23T15:39:57.194Z,10.68
2019-03-23T15:42:28.721Z,12.93
2019-03-23T15:45:00.334Z,14.15
2019-03-23T15:47:31.820Z,10.75
2019-03-23T15:50:04.650Z,16.50
2019-03-23T15:52:36.156Z,14.00
2019-03-23T15:55:07.717Z,17.25
2019-03-23T15:57:39.269Z,14.90
2019-03-23T16:00:12.201Z,14.50
2019-03-23T16:02:43.842Z,14.73
2019-03-23T16:05:15.437Z,17.17
2019-03-23T16:07:46.942Z,15.83
2019-03-23T16:10:18.463Z,14.38
2019-03-23T16:12:50.011Z,13.68
2019-03-23T16:15:21.617Z,21.75
2019-03-23T16:17:53.145Z,24.23
2019-03-23T16:20:24.666Z,25.35
2019-03-23T16:22:56.269Z,39.53
2019-03-23T16:25:27.795Z,54.85
2019-03-23T16:27:59.398Z,64.60
2019-03-23T16:30:32.126Z,62.43
2019-03-23T16:33:03.648Z,70.75
2019-03-23T16:35:35.243Z,66.50
2019-03-23T16:38:06.762Z,56.18
2019-03-23T16:40:38.348Z,61.35
2019-03-23T16:43:09.982Z,56.00
2019-03-23T16:45:52.990Z,58.75
2019-03-23T16:48:14.824Z,61.45
2019-03-23T16:50:46.417Z,68.20
2019-03-23T16:53:18.009Z,64.82
2019-03-23T16:55:49.534Z,69.95
2019-03-23T16:58:21.136Z,73.65
2019-03-23T17:00:52.648Z,77.50
2019-03-23T17:03:24.221Z,78.37
2019-03-23T17:05:55.739Z,81.40
2019-03-23T17:08:27.351Z,79.30
2019-03-23T17:10:58.837Z,75.50
2019-03-23T17:13:30.429Z,75.78
2019-03-23T17:16:02.021Z,75.92
2019-03-23T17:18:33.600Z,77.90
2019-03-23T17:21:05.149Z,73.83
2019-03-23T17:23:37.417Z,81.55
2019-03-23T17:26:10.558Z,72.15
2019-03-23T17:28:42.089Z,73.25
2019-03-23T17:31:13.592Z,80.28
2019-03-23T17:33:46.069Z,87.22
2019-03-23T17:36:17.611Z,81.17
2019-03-23T17:38:49.163Z,87.02
2019-03-23T17:41:23.426Z,97.57
2019-03-23T17:43:54.929Z,97.15
2019-03-23T17:46:27.816Z,100.42
2019-03-23T17:48:59.467Z,103.62
2019-03-23T17:51:31.004Z,109.95
2019-03-23T17:54:02.504Z,103.42
2019-03-23T17:56:34.014Z,102.27
2019-03-23T17:59:05.574Z,110.25
2019-03-23T18:01:37.253Z,111.05
2019-03-23T18:04:09.734Z,105.87
2019-03-23T18:06:45.472Z,95.62
2019-03-23T18:09:17.159Z,86.55
2019-03-23T18:11:52.094Z,72.20
2019-03-23T18:14:24.001Z,64.80
2019-03-23T18:16:58.804Z,72.27
2019-03-23T18:19:34.649Z,62.33
2019-03-23T18:22:07.877Z,63.73
2019-03-23T18:24:39.408Z,46.68
2019-03-23T18:27:12.561Z,59.13
2019-03-23T18:29:44.210Z,47.95
2019-03-23T18:32:15.864Z,50.55
2019-03-23T18:34:47.636Z,49.00
2019-03-23T18:37:22.593Z,49.53
2019-03-23T18:39:54.161Z,47.98
2019-03-23T18:42:25.695Z,51.48
2019-03-23T18:44:57.274Z,47.93
2019-03-23T18:47:30.179Z,52.03
2019-03-23T18:50:01.715Z,49.65
2019-03-23T18:52:33.243Z,45.48
2019-03-23T18:55:11.483Z,49.13
2019-03-23T18:57:44.314Z,51.85
2019-03-23T19:00:39.681Z,44.73
2019-03-23T19:03:12.750Z,43.28
2019-03-23T19:05:44.273Z,47.73
2019-03-23T19:08:15.798Z,48.10
2019-03-23T19:10:47.333Z,51.90
2019-03-23T19:13:18.916Z,48.40
2019-03-23T19:15:52.032Z,53.23
2019-03-23T19:18:23.560Z,42.73
2019-03-23T19:21:07.611Z,48.68
2019-03-23T19:23:38.710Z,53.63
2019-03-23T19:26:10.529Z,51.45
2019-03-23T19:29:03.454Z,49.55
2019-03-23T19:31:34.981Z,54.08
2019-03-23T19:34:06.491Z,54.00
2019-03-23T19:36:38.006Z,50.90
2019-03-23T19:39:10.693Z,52.67
2019-03-23T19:41:42.283Z,48.40
2019-03-23T19:44:17.034Z,52.45
2019-03-23T19:46:52.498Z,51.45
2019-03-23T19:49:24.119Z,45.05
2019-03-23T19:51:55.702Z,47.98
2019-03-23T19:54:27.444Z,44.15
2019-03-23T19:57:00.751Z,45.73
2019-03-23T19:59:35.581Z,41.73
2019-03-23T20:02:12.158Z,41.70
2019-03-23T20:05:00.154Z,42.98
2019-03-23T20:07:41.315Z,47.00
2019-03-23T20:10:15.480Z,46.02
2019-03-23T20:12:51.942Z,40.40
2019-03-23T20:15:22.249Z,44.75
2019-03-23T20:17:53.781Z,37.65
2019-03-23T20:20:26.922Z,37.85
2019-03-23T20:22:58.710Z,44.50
2019-03-23T20:25:30.551Z,39.73
2019-03-23T20:28:03.900Z,43.53
2019-03-23T20:30:37.034Z,35.65
2019-03-23T20:33:19.239Z,35.20
2019-03-23T20:35:47.666Z,36.40
2019-03-23T20:38:19.336Z,37.90
2019-03-23T20:40:51.669Z,36.07
2019-03-23T20:43:23.268Z,36.67
2019-03-23T20:45:54.973Z,33.75
2019-03-23T20:48:26.587Z,32.23
2019-03-23T20:50:58.112Z,42.80
2019-03-23T20:53:29.818Z,35.90
2019-03-23T20:56:01.521Z,36.20
2019-03-23T20:58:33.155Z,39.13
2019-03-23T21:01:05.100Z,36.85
2019-03-23T21:03:36.745Z,37.42
2019-03-23T21:06:08.899Z,41.33
2019-03-23T21:08:40.863Z,40.90
2019-03-23T21:11:12.414Z,37.97
2019-03-23T21:13:44.231Z,34.90
2019-03-23T21:16:15.892Z,36.27
2019-03-23T21:18:47.477Z,33.97
2019-03-23T21:21:19.172Z,27.93
2019-03-23T21:23:52.131Z,35.77
2019-03-23T21:26:23.887Z,30.27
2019-03-23T21:28:55.542Z,37.30
2019-03-23T21:31:27.059Z,38.47
2019-03-23T21:33:58.674Z,31.33
2019-03-23T21:36:31.957Z,35.77
2019-03-23T21:39:04.645Z,27.27
2019-03-23T21:41:37.630Z,32.77
2019-03-23T21:44:14.965Z,35.20
2019-03-23T21:46:46.634Z,34.23
2019-03-23T21:51:21.827Z,38.27
2019-03-23T21:53:55.849Z,30.77
2019-03-23T21:56:27.498Z,31.93
2019-03-23T21:58:59.075Z,31.23
2019-03-23T22:01:32.476Z,34.43
2019-03-23T22:04:04.052Z,29.00
2019-03-23T22:06:35.641Z,32.53
2019-03-23T22:09:07.440Z,30.83
2019-03-23T22:11:38.976Z,34.37
2019-03-23T22:16:21.558Z,35.07
2019-03-23T22:18:53.125Z,34.67
2019-03-23T22:21:27.875Z,32.93
2019-03-23T22:23:59.692Z,36.60
2019-03-23T22:26:31.205Z,36.27
2019-03-23T22:29:02.732Z,34.00
2019-03-23T22:31:34.249Z,32.10
2019-03-23T22:34:05.827Z,33.40
2019-03-23T22:36:37.406Z,35.77
2019-03-23T22:39:09.034Z,28.20
2019-03-23T22:41:40.524Z,32.03
2019-03-23T22:44:12.114Z,29.27
2019-03-23T22:46:43.641Z,37.87
2019-03-23T22:49:15.185Z,38.47
2019-03-23T22:51:46.827Z,36.37
2019-03-23T22:54:18.347Z,40.13
2019-03-23T22:56:49.979Z,33.37
2019-03-23T22:59:21.571Z,34.83
2019-03-23T23:01:53.158Z,38.87
2019-03-23T23:04:25.835Z,38.83
2019-03-23T23:06:57.358Z,32.73
2019-03-23T23:09:28.850Z,35.17
2019-03-23T23:12:00.443Z,32.80
2019-03-23T23:14:32.031Z,33.03
2019-03-23T23:17:03.624Z,29.17
2019-03-23T23:19:35.152Z,40.80
2019-03-23T23:22:06.728Z,41.57
2019-03-23T23:24:38.248Z,29.57
2019-03-23T23:27:09.979Z,35.03
2019-03-23T23:29:41.571Z,35.47
2019-03-23T23:32:13.193Z,36.80
2019-03-23T23:34:44.822Z,39.17
2019-03-23T23:37:16.325Z,37.67
2019-03-23T23:39:47.841Z,36.20
2019-03-23T23:42:19.357Z,41.67
2019-03-23T23:44:50.883Z,35.57
2019-03-23T23:47:22.465Z,34.33
2019-03-23T23:49:53.978Z,34.53
2019-03-23T23:52:25.538Z,35.93
2019-03-23T23:54:57.053Z,29.17
2019-03-23T23:57:29.597Z,33.37
